Time;durP1;ratioP1;P1;durP2;ratioP2;P2;SDS_P1;SDS_P2;PMS_P1;PMS_P2;Temp;Humidity;BMP_temperature;BMP_pressure;BME280_temperature;BME280_humidity;BME280_pressure;Samples;Min_cycle;Max_cycle;Signal;HPM_P1;HPM_P2
2021/07/25 00:01:40;;;;;;;0.28;0.28;;;24.00;77.00;;;;;;4206551;28;20059;-50
2021/07/25 00:04:02;;;;;;;0.75;0.75;;;24.00;77.20;;;;;;4207937;28;20134;-51
2021/07/25 00:06:27;;;;;;;0.75;0.75;;;24.00;77.40;;;;;;4207180;28;20050;-46
2021/07/25 00:08:49;;;;;;;0.40;0.40;;;24.00;77.70;;;;;;4191058;28;20135;-47
2021/07/25 00:11:13;;;;;;;0.22;0.22;;;24.00;77.80;;;;;;4205168;27;20143;-49
2021/07/25 00:13:40;;;;;;;0.20;0.20;;;24.00;77.80;;;;;;4207918;27;20509;-47
2021/07/25 00:16:02;;;;;;;0.40;0.40;;;24.00;77.90;;;;;;4206393;27;20504;-51
2021/07/25 00:18:31;;;;;;;0.60;0.60;;;24.00;78.00;;;;;;4207000;27;20051;-51
2021/07/25 00:20:53;;;;;;;0.40;0.40;;;23.90;78.10;;;;;;4205881;28;20410;-48
2021/07/25 00:23:19;;;;;;;1.60;1.55;;;23.90;78.20;;;;;;4191431;28;20075;-48
2021/07/25 00:25:42;;;;;;;0.68;0.47;;;23.90;78.30;;;;;;4205183;27;20056;-52
2021/07/25 00:28:05;;;;;;;0.28;0.28;;;23.90;78.40;;;;;;4190962;28;20422;-51
2021/07/25 00:30:27;;;;;;;1.20;1.17;;;23.90;78.50;;;;;;4191087;28;20637;-46
2021/07/25 00:32:49;;;;;;;1.38;1.27;;;23.90;78.50;;;;;;4191181;28;20056;-48
2021/07/25 00:35:12;;;;;;;0.47;0.47;;;23.90;78.70;;;;;;4191126;28;20057;-48
2021/07/25 00:37:34;;;;;;;2.28;1.45;;;23.90;78.90;;;;;;4202786;27;20516;-47
2021/07/25 00:39:58;;;;;;;0.22;0.22;;;23.90;79.10;;;;;;4206989;28;20052;-50
2021/07/25 00:42:19;;;;;;;0.25;0.25;;;23.90;79.30;;;;;;4208171;28;20567;-50
2021/07/25 00:44:41;;;;;;;2.55;0.95;;;23.90;79.30;;;;;;4211166;28;20079;-50
2021/07/25 00:47:04;;;;;;;3.13;1.15;;;23.90;79.60;;;;;;4210883;28;20414;-47
2021/07/25 00:49:27;;;;;;;0.25;0.25;;;23.90;79.70;;;;;;4210517;28;20104;-49
2021/07/25 00:51:50;;;;;;;0.60;0.60;;;23.90;79.70;;;;;;4211210;28;20523;-48
2021/07/25 00:54:14;;;;;;;5.70;1.77;;;23.80;80.00;;;;;;4193904;28;20139;-47
2021/07/25 00:56:37;;;;;;;0.00;0.00;;;23.80;80.00;;;;;;4177662;28;20040;-47
2021/07/25 00:58:59;;;;;;;0.77;0.77;;;23.80;80.20;;;;;;4177267;28;20052;-51
2021/07/25 01:01:22;;;;;;;3.30;1.48;;;23.80;80.20;;;;;;4177569;28;20065;-49
2021/07/25 01:03:56;;;;;;;0.43;0.43;;;23.80;80.20;;;;;;4177491;28;20392;-49
2021/07/25 01:06:28;;;;;;;1.05;1.05;;;23.80;80.10;;;;;;4182059;28;20048;-49
2021/07/25 01:08:58;;;;;;;0.55;0.55;;;23.80;80.20;;;;;;4193132;28;20052;-48
2021/07/25 01:11:20;;;;;;;0.10;0.10;;;23.80;81.10;;;;;;4190638;28;20067;-50
2021/07/25 01:13:51;;;;;;;0.05;0.05;;;23.80;80.20;;;;;;4193732;28;20051;-47
2021/07/25 01:16:13;;;;;;;0.35;0.35;;;23.80;80.20;;;;;;4193499;28;20052;-48
2021/07/25 01:18:45;;;;;;;0.65;0.65;;;23.80;80.30;;;;;;4193510;28;20040;-47
2021/07/25 01:21:08;;;;;;;0.50;0.50;;;23.80;80.30;;;;;;4193503;28;20066;-51
2021/07/25 01:23:30;;;;;;;0.65;0.65;;;23.80;80.30;;;;;;4193469;28;20129;-48
2021/07/25 01:25:58;;;;;;;0.00;0.00;;;23.80;80.30;;;;;;4176941;28;20414;-47
2021/07/25 01:28:24;;;;;;;0.43;0.43;;;23.80;80.30;;;;;;4179865;28;20135;-48
2021/07/25 01:30:53;;;;;;;2.53;1.48;;;23.80;80.30;;;;;;4209856;28;20048;-49
2021/07/25 01:33:20;;;;;;;4.35;2.33;;;23.80;80.40;;;;;;4210167;28;20101;-51
2021/07/25 01:35:46;;;;;;;0.52;0.52;;;23.80;80.40;;;;;;4210107;28;20052;-48
2021/07/25 01:38:10;;;;;;;0.65;0.65;;;23.80;80.50;;;;;;4209766;28;20048;-50
2021/07/25 01:40:33;;;;;;;0.95;0.95;;;23.80;80.50;;;;;;4209443;27;20067;-50
2021/07/25 01:42:56;;;;;;;0.00;0.00;;;23.80;80.50;;;;;;4199926;27;20050;-47
2021/07/25 01:45:19;;;;;;;0.10;0.10;;;23.80;80.50;;;;;;4195206;27;20048;-51
2021/07/25 01:47:41;;;;;;;0.75;0.75;;;23.80;80.50;;;;;;4208743;27;20081;-48
2021/07/25 01:50:04;;;;;;;0.43;0.43;;;23.80;80.40;;;;;;4206428;28;20131;-53
2021/07/25 01:52:26;;;;;;;0.55;0.55;;;23.80;80.50;;;;;;4209609;28;20048;-50
2021/07/25 01:54:50;;;;;;;0.08;0.08;;;23.80;80.50;;;;;;4208904;27;20079;-50
2021/07/25 01:57:12;;;;;;;0.55;0.55;;;23.80;80.40;;;;;;4209744;28;20094;-50
2021/07/25 01:59:34;;;;;;;0.10;0.10;;;23.80;80.50;;;;;;4209568;28;20554;-47
2021/07/25 02:01:56;;;;;;;0.38;0.38;;;23.80;80.60;;;;;;4209788;28;20050;-47
2021/07/25 02:04:18;;;;;;;0.45;0.45;;;23.80;80.50;;;;;;4209614;28;20113;-48
2021/07/25 02:06:41;;;;;;;0.68;0.68;;;23.80;80.60;;;;;;4208999;28;20090;-47
2021/07/25 02:09:03;;;;;;;0.65;0.65;;;23.80;80.60;;;;;;4196759;27;20765;-48
2021/07/25 02:11:26;;;;;;;0.13;0.13;;;23.80;80.60;;;;;;4209692;27;20452;-49
2021/07/25 02:13:47;;;;;;;0.30;0.30;;;23.80;80.60;;;;;;4209447;27;20062;-47
2021/07/25 02:16:10;;;;;;;0.10;0.10;;;23.80;80.60;;;;;;4207834;27;20555;-47
2021/07/25 02:18:32;;;;;;;0.45;0.45;;;23.80;80.60;;;;;;4205263;27;20044;-48
2021/07/25 02:20:54;;;;;;;0.30;0.30;;;23.80;80.60;;;;;;4186176;28;20495;-46
2021/07/25 02:23:16;;;;;;;0.50;0.50;;;23.80;80.60;;;;;;4209051;28;20470;-50
2021/07/25 02:25:39;;;;;;;0.98;0.98;;;23.80;80.70;;;;;;4209424;28;20514;-51
2021/07/25 02:28:02;;;;;;;0.32;0.32;;;23.80;80.60;;;;;;4209424;28;20481;-47
2021/07/25 02:30:24;;;;;;;1.33;0.82;;;23.80;80.70;;;;;;4209045;28;20083;-48
2021/07/25 02:32:46;;;;;;;0.65;0.65;;;23.80;80.70;;;;;;4209314;28;20056;-50
2021/07/25 02:35:08;;;;;;;0.40;0.40;;;23.80;80.70;;;;;;4209217;28;20178;-48
2021/07/25 02:37:30;;;;;;;0.43;0.43;;;23.80;80.70;;;;;;4209066;28;20233;-51
2021/07/25 02:39:52;;;;;;;2.10;2.00;;;23.80;80.70;;;;;;4207328;28;20052;-50
2021/07/25 02:42:14;;;;;;;0.68;0.68;;;23.80;80.80;;;;;;4209004;27;20055;-52
2021/07/25 02:44:37;;;;;;;0.45;0.45;;;23.80;80.70;;;;;;4209004;27;20460;-47
2021/07/25 02:47:00;;;;;;;0.00;0.00;;;23.80;80.80;;;;;;4208810;27;20113;-49
2021/07/25 02:49:22;;;;;;;0.10;0.10;;;23.80;80.80;;;;;;4208607;27;20513;-50
2021/07/25 02:51:44;;;;;;;0.13;0.13;;;23.80;80.80;;;;;;4208675;27;20048;-48
2021/07/25 02:54:06;;;;;;;0.00;0.00;;;23.80;80.80;;;;;;4208506;27;20068;-47
2021/07/25 02:56:28;;;;;;;0.28;0.28;;;23.80;80.80;;;;;;4198916;27;20048;-49
2021/07/25 02:58:50;;;;;;;0.47;0.47;;;23.80;80.80;;;;;;4208708;27;20047;-50
2021/07/25 03:01:14;;;;;;;2.45;1.00;;;23.80;80.80;;;;;;4208694;27;20044;-51
2021/07/25 03:03:37;;;;;;;0.10;0.10;;;23.80;80.80;;;;;;4206991;28;20058;-47
2021/07/25 03:05:59;;;;;;;9.93;1.10;;;23.80;80.80;;;;;;4207518;27;20593;-49
2021/07/25 03:08:21;;;;;;;0.10;0.10;;;23.80;80.80;;;;;;4208420;28;20060;-49
2021/07/25 03:10:43;;;;;;;0.30;0.30;;;23.80;80.70;;;;;;4208586;27;20135;-47
2021/07/25 03:13:06;;;;;;;0.30;0.30;;;23.80;80.80;;;;;;4198648;27;20459;-50
2021/07/25 03:15:28;;;;;;;0.20;0.20;;;23.80;80.80;;;;;;4208553;27;20471;-50
2021/07/25 03:17:52;;;;;;;1.27;1.27;;;23.80;80.80;;;;;;4208558;27;20052;-48
2021/07/25 03:20:15;;;;;;;0.00;0.00;;;23.80;80.80;;;;;;4208346;28;20052;-50
2021/07/25 03:22:38;;;;;;;0.20;0.20;;;23.90;80.80;;;;;;4191657;28;20562;-47
2021/07/25 03:25:00;;;;;;;0.65;0.65;;;23.80;81.60;;;;;;4207797;27;20573;-51
2021/07/25 03:27:22;;;;;;;0.60;0.60;;;23.80;80.70;;;;;;4208143;27;20052;-50
2021/07/25 03:29:44;;;;;;;0.65;0.65;;;23.80;80.60;;;;;;4195231;27;20101;-51
2021/07/25 03:32:07;;;;;;;0.30;0.30;;;23.80;81.50;;;;;;4192321;28;20051;-49
2021/07/25 03:34:32;;;;;;;1.15;1.15;;;23.80;80.60;;;;;;4208056;27;20055;-52
2021/07/25 03:36:54;;;;;;;1.13;0.50;;;23.80;80.50;;;;;;4208412;28;20131;-55
2021/07/25 03:39:20;;;;;;;2.22;0.88;;;23.80;80.60;;;;;;4207436;28;20047;-47
2021/07/25 03:41:42;;;;;;;1.13;0.82;;;23.80;80.50;;;;;;4191024;28;20044;-49
2021/07/25 03:44:04;;;;;;;0.40;0.40;;;23.80;80.50;;;;;;4191043;28;20123;-54
2021/07/25 03:46:26;;;;;;;0.10;0.10;;;23.80;80.40;;;;;;4180015;28;20406;-50
2021/07/25 03:48:51;;;;;;;0.00;0.00;;;23.80;80.50;;;;;;4191323;28;20052;-47
2021/07/25 03:51:15;;;;;;;0.08;0.08;;;23.80;80.30;;;;;;4191353;28;20056;-48
2021/07/25 03:53:37;;;;;;;0.10;0.10;;;23.80;80.30;;;;;;4200629;27;20044;-48
2021/07/25 03:55:59;;;;;;;0.65;0.65;;;23.80;80.30;;;;;;4208100;27;20135;-50
2021/07/25 03:58:21;;;;;;;0.30;0.30;;;23.80;80.30;;;;;;4206425;28;20959;-52
2021/07/25 04:00:43;;;;;;;0.43;0.43;;;23.80;80.20;;;;;;4207316;28;20494;-49
2021/07/25 04:03:06;;;;;;;0.15;0.13;;;23.80;80.30;;;;;;4207952;28;20054;-49
2021/07/25 04:05:28;;;;;;;0.30;0.30;;;23.80;80.20;;;;;;4191568;28;20084;-50
2021/07/25 04:07:52;;;;;;;0.00;0.00;;;23.80;80.20;;;;;;4190840;28;20118;-52
2021/07/25 04:10:14;;;;;;;0.17;0.17;;;23.80;80.20;;;;;;4207907;28;20131;-51
2021/07/25 04:12:36;;;;;;;0.28;0.28;;;23.80;80.20;;;;;;4207612;28;20121;-48
2021/07/25 04:14:59;;;;;;;0.20;0.20;;;23.70;80.10;;;;;;4207950;28;20064;-49
2021/07/25 04:17:21;;;;;;;0.55;0.55;;;23.80;80.20;;;;;;4207463;28;20060;-51
2021/07/25 04:19:43;;;;;;;0.00;0.00;;;23.70;80.10;;;;;;4207851;28;20055;-54
2021/07/25 04:22:05;;;;;;;1.00;0.95;;;23.80;80.10;;;;;;4207588;28;20055;-52
2021/07/25 04:24:29;;;;;;;0.10;0.10;;;23.80;80.10;;;;;;4206933;28;20056;-48
2021/07/25 04:26:51;;;;;;;0.10;0.10;;;23.70;80.10;;;;;;4206278;28;20583;-48
2021/07/25 04:29:14;;;;;;;3.70;0.68;;;23.70;80.00;;;;;;4207781;28;20131;-52
2021/07/25 04:31:37;;;;;;;0.00;0.00;;;23.70;80.00;;;;;;4207746;28;20056;-48
2021/07/25 04:33:59;;;;;;;0.22;0.22;;;23.70;80.00;;;;;;4207871;28;20048;-53
2021/07/25 04:36:26;;;;;;;0.17;0.17;;;23.70;80.00;;;;;;4207635;28;20056;-52
2021/07/25 04:38:48;;;;;;;0.10;0.10;;;23.70;80.00;;;;;;4191068;28;20076;-51
2021/07/25 04:41:14;;;;;;;0.10;0.10;;;23.70;80.00;;;;;;4200452;28;20056;-50
2021/07/25 04:43:37;;;;;;;0.40;0.40;;;23.70;80.00;;;;;;4207366;28;20040;-48
2021/07/25 04:46:04;;;;;;;0.20;0.20;;;23.70;80.00;;;;;;4207455;28;20060;-51
2021/07/25 04:48:35;;;;;;;0.55;0.55;;;23.70;80.00;;;;;;4206085;28;20530;-50
2021/07/25 04:51:04;;;;;;;0.08;0.08;;;23.70;80.00;;;;;;4207132;28;20044;-50
2021/07/25 04:53:27;;;;;;;0.30;0.30;;;23.70;80.40;;;;;;4206398;28;20406;-48
2021/07/25 04:55:59;;;;;;;0.00;0.00;;;23.70;80.70;;;;;;4207315;28;20152;-50
2021/07/25 04:58:23;;;;;;;;;;;23.70;80.50;;;;;;4206355;28;20113;-51
2021/07/25 05:00:53;;;;;;;0.00;0.00;;;23.70;80.40;;;;;;4207500;28;19928;-48
2021/07/25 05:03:16;;;;;;;0.65;0.65;;;23.70;80.30;;;;;;4207708;28;20054;-49
2021/07/25 05:05:38;;;;;;;0.35;0.35;;;23.70;80.30;;;;;;4206775;28;20060;-51
2021/07/25 05:08:02;;;;;;;0.00;0.00;;;23.70;80.30;;;;;;4207074;28;20499;-46
2021/07/25 05:10:25;;;;;;;0.03;0.03;;;23.70;80.20;;;;;;4207164;28;20148;-48
2021/07/25 05:12:56;;;;;;;0.43;0.43;;;23.70;80.30;;;;;;4207118;28;20116;-49
2021/07/25 05:15:24;;;;;;;0.00;0.00;;;23.60;80.20;;;;;;4207176;28;20059;-50
2021/07/25 05:17:52;;;;;;;0.75;0.75;;;23.60;80.20;;;;;;4206738;28;20054;-50
2021/07/25 05:20:18;;;;;;;0.10;0.10;;;23.60;80.20;;;;;;4190750;28;20106;-51
2021/07/25 05:22:44;;;;;;;0.17;0.17;;;23.60;80.20;;;;;;4207115;28;20523;-49
2021/07/25 05:25:08;;;;;;;0.30;0.30;;;23.60;80.30;;;;;;4206503;28;20062;-51
2021/07/25 05:27:39;;;;;;;0.00;0.00;;;23.60;80.30;;;;;;4207224;28;20072;-48
2021/07/25 05:30:02;;;;;;;0.52;0.52;;;23.60;80.30;;;;;;4207067;28;20052;-48
2021/07/25 05:32:25;;;;;;;0.00;0.00;;;23.60;80.30;;;;;;4210375;28;20098;-48
2021/07/25 05:34:47;;;;;;;0.00;0.00;;;23.60;80.30;;;;;;4208467;28;20059;-49
2021/07/25 05:37:09;;;;;;;0.00;0.00;;;23.60;80.30;;;;;;4209551;27;20048;-50
2021/07/25 05:39:31;;;;;;;0.20;0.20;;;23.60;81.20;;;;;;4196989;28;20123;-50
2021/07/25 05:41:53;;;;;;;0.00;0.00;;;23.70;88.00;;;;;;4209755;27;20140;-49
2021/07/25 05:44:15;;;;;;;3.10;1.23;;;23.70;87.50;;;;;;4191996;28;20522;-51
2021/07/25 05:46:37;;;;;;;0.00;0.00;;;23.70;84.60;;;;;;4193562;28;20040;-49
2021/07/25 05:49:01;;;;;;;2.28;1.13;;;23.70;83.90;;;;;;4193169;28;20113;-51
2021/07/25 05:51:23;;;;;;;0.38;0.38;;;23.60;83.20;;;;;;4192962;28;20589;-47
2021/07/25 05:53:45;;;;;;;0.55;0.55;;;23.60;83.00;;;;;;4205207;27;20479;-47
2021/07/25 05:56:09;;;;;;;0.40;0.40;;;23.60;82.60;;;;;;4208265;28;20418;-50
2021/07/25 05:58:31;;;;;;;0.60;0.47;;;23.60;82.30;;;;;;4193723;28;20048;-50
2021/07/25 06:00:53;;;;;;;4.68;1.00;;;23.60;82.30;;;;;;4208422;27;20052;-48
2021/07/25 06:03:15;;;;;;;6.47;1.30;;;23.60;82.10;;;;;;4206043;27;20052;-50
2021/07/25 06:05:39;;;;;;;0.90;0.55;;;23.50;82.00;;;;;;4209600;27;20044;-46
2021/07/25 06:08:03;;;;;;;0.65;0.65;;;23.60;82.00;;;;;;4208434;27;20052;-51
2021/07/25 06:10:27;;;;;;;0.30;0.30;;;23.50;82.70;;;;;;4205779;28;20052;-46
2021/07/25 06:12:51;;;;;;;0.90;0.90;;;23.50;81.90;;;;;;4209448;27;20052;-48
2021/07/25 06:15:14;;;;;;;0.13;0.13;;;23.60;82.70;;;;;;4209701;27;20131;-48
2021/07/25 06:17:36;;;;;;;0.00;0.00;;;23.50;82.20;;;;;;4202556;27;20051;-49
2021/07/25 06:19:58;;;;;;;0.55;0.55;;;23.50;82.10;;;;;;4209446;27;20040;-50
2021/07/25 06:22:21;;;;;;;0.68;0.68;;;23.60;81.70;;;;;;4207561;27;20052;-51
2021/07/25 06:24:44;;;;;;;0.50;0.50;;;23.60;81.70;;;;;;4199700;28;20048;-49
2021/07/25 06:27:06;;;;;;;8.57;0.65;;;23.50;81.60;;;;;;4209098;27;20043;-50
2021/07/25 06:29:28;;;;;;;0.00;0.00;;;23.50;81.60;;;;;;4209237;27;20140;-53
2021/07/25 06:31:50;;;;;;;0.05;0.05;;;23.50;81.70;;;;;;4209366;27;20047;-50
2021/07/25 06:34:13;;;;;;;0.45;0.45;;;23.50;81.80;;;;;;4207737;28;20072;-51
2021/07/25 06:36:35;;;;;;;2.20;0.90;;;23.50;81.80;;;;;;4209127;28;20134;-50
2021/07/25 06:38:58;;;;;;;1.98;0.82;;;23.50;81.80;;;;;;4209180;28;20048;-49
2021/07/25 06:41:20;;;;;;;0.13;0.13;;;23.50;81.80;;;;;;4208632;27;20064;-50
2021/07/25 06:43:42;;;;;;;0.15;0.15;;;23.50;81.90;;;;;;4176618;28;20067;-48
2021/07/25 06:46:10;;;;;;;0.80;0.80;;;23.50;81.90;;;;;;4175448;28;20049;-47
2021/07/25 06:48:33;;;;;;;0.00;0.00;;;23.50;82.00;;;;;;4175607;28;20503;-50
2021/07/25 06:50:56;;;;;;;0.10;0.10;;;23.50;82.10;;;;;;4175784;28;20064;-48
2021/07/25 06:53:19;;;;;;;1.65;1.55;;;23.50;82.90;;;;;;4175481;28;20048;-48
2021/07/25 06:55:43;;;;;;;1.40;1.05;;;23.60;83.20;;;;;;4175580;28;20134;-50
2021/07/25 06:58:05;;;;;;;0.25;0.25;;;23.60;82.70;;;;;;4187158;28;20118;-46
2021/07/25 07:00:27;;;;;;;0.38;0.38;;;23.60;82.50;;;;;;4182442;28;20059;-50
2021/07/25 07:02:51;;;;;;;0.20;0.20;;;23.60;82.40;;;;;;4191690;28;20108;-49
2021/07/25 07:05:13;;;;;;;0.50;0.50;;;23.60;82.30;;;;;;4191984;28;20486;-46
2021/07/25 07:07:35;;;;;;;0.00;0.00;;;23.60;82.30;;;;;;4191842;28;20052;-47
2021/07/25 07:09:57;;;;;;;0.40;0.40;;;23.60;82.30;;;;;;4191486;28;20048;-49
2021/07/25 07:12:21;;;;;;;1.67;0.32;;;23.60;82.30;;;;;;4192081;28;20487;-48
2021/07/25 07:14:43;;;;;;;0.73;0.73;;;23.60;82.40;;;;;;4192231;28;20040;-46
2021/07/25 07:17:05;;;;;;;0.30;0.30;;;23.60;82.30;;;;;;4191901;28;20051;-49
2021/07/25 07:19:27;;;;;;;1.23;0.30;;;23.60;82.20;;;;;;4191586;28;20052;-51
2021/07/25 07:21:48;;;;;;;1.17;1.05;;;23.60;82.20;;;;;;4191967;28;20060;-47
2021/07/25 07:24:11;;;;;;;0.22;0.22;;;23.60;82.30;;;;;;4191916;28;20055;-51
2021/07/25 07:26:33;;;;;;;0.20;0.20;;;23.60;82.30;;;;;;4191921;28;20052;-48
2021/07/25 07:28:56;;;;;;;0.13;0.13;;;23.60;82.30;;;;;;4191412;28;20453;-48
2021/07/25 07:31:18;;;;;;;1.08;0.65;;;23.60;82.20;;;;;;4191565;28;20049;-50
2021/07/25 07:33:40;;;;;;;0.10;0.10;;;23.60;83.10;;;;;;4191566;28;20037;-49
2021/07/25 07:36:03;;;;;;;0.15;0.15;;;23.60;82.20;;;;;;4191921;28;20718;-47
2021/07/25 07:38:25;;;;;;;2.17;1.23;;;23.70;82.30;;;;;;4191956;28;20079;-48
2021/07/25 07:40:48;;;;;;;0.00;0.00;;;23.70;82.30;;;;;;4191463;28;20052;-49
2021/07/25 07:43:11;;;;;;;0.15;0.15;;;23.70;82.20;;;;;;4190252;28;20059;-48
2021/07/25 07:45:35;;;;;;;1.00;1.00;;;23.70;82.20;;;;;;4191722;28;20052;-49
2021/07/25 07:47:58;;;;;;;0.10;0.10;;;23.70;82.30;;;;;;4189893;28;20052;-49
2021/07/25 07:50:21;;;;;;;0.75;0.75;;;23.80;82.30;;;;;;4191382;28;20065;-49
2021/07/25 07:52:43;;;;;;;0.15;0.15;;;23.80;82.20;;;;;;4190891;28;20418;-50
2021/07/25 07:55:05;;;;;;;0.10;0.10;;;23.80;82.10;;;;;;4191505;28;20048;-50
2021/07/25 07:57:28;;;;;;;0.30;0.30;;;23.80;82.00;;;;;;4191259;28;20049;-49
2021/07/25 07:59:50;;;;;;;0.20;0.20;;;23.90;82.00;;;;;;4191434;28;20079;-47
2021/07/25 08:02:13;;;;;;;1.27;1.27;;;23.90;82.00;;;;;;4191464;28;20041;-47
2021/07/25 08:04:35;;;;;;;0.90;0.22;;;23.90;81.80;;;;;;4191378;28;20051;-48
2021/07/25 08:06:57;;;;;;;0.00;0.00;;;23.90;81.80;;;;;;4191389;28;20054;-49
2021/07/25 08:09:19;;;;;;;0.08;0.08;;;23.90;81.80;;;;;;4191086;28;20059;-48
2021/07/25 08:11:45;;;;;;;0.10;0.10;;;23.90;81.80;;;;;;4191220;28;20044;-47
2021/07/25 08:14:07;;;;;;;0.52;0.38;;;23.90;81.80;;;;;;4191493;28;20052;-46
2021/07/25 08:16:29;;;;;;;0.20;0.20;;;23.90;81.80;;;;;;4190908;28;20502;-47
2021/07/25 08:18:54;;;;;;;0.50;0.50;;;23.90;81.70;;;;;;4191171;28;20052;-47
2021/07/25 08:21:16;;;;;;;0.05;0.05;;;23.90;81.70;;;;;;4191534;28;20056;-47
2021/07/25 08:23:38;;;;;;;0.32;0.32;;;23.90;81.60;;;;;;4191402;28;20063;-49
2021/07/25 08:26:00;;;;;;;0.38;0.38;;;24.00;81.60;;;;;;4191455;28;20140;-48
2021/07/25 08:28:22;;;;;;;0.75;0.75;;;24.00;81.40;;;;;;4190998;28;22150;-50
2021/07/25 08:30:44;;;;;;;0.75;0.75;;;24.00;81.30;;;;;;4191189;28;20080;-50
2021/07/25 08:33:07;;;;;;;0.80;0.80;;;24.00;81.30;;;;;;4190903;28;20507;-49
2021/07/25 08:35:30;;;;;;;0.00;0.00;;;24.00;81.20;;;;;;4174792;28;20049;-48
2021/07/25 08:37:53;;;;;;;0.63;0.63;;;24.00;81.20;;;;;;4191090;28;20053;-49
2021/07/25 08:40:16;;;;;;;0.00;0.00;;;24.00;81.10;;;;;;4190979;28;20056;-49
2021/07/25 08:42:49;;;;;;;0.20;0.20;;;24.10;81.00;;;;;;4191208;28;20040;-46
2021/07/25 08:45:12;;;;;;;0.10;0.10;;;24.10;81.00;;;;;;4190867;28;20495;-51
2021/07/25 08:47:40;;;;;;;0.20;0.20;;;24.10;81.00;;;;;;4191033;28;20502;-47
2021/07/25 08:50:03;;;;;;;0.00;0.00;;;24.10;80.90;;;;;;4190811;28;20118;-48
2021/07/25 08:52:30;;;;;;;0.08;0.08;;;24.10;80.90;;;;;;4190859;28;20498;-49
2021/07/25 08:54:53;;;;;;;0.00;0.00;;;24.10;80.90;;;;;;4191190;28;20053;-48
2021/07/25 08:57:18;;;;;;;0.10;0.10;;;24.10;80.80;;;;;;4191226;28;20057;-49
2021/07/25 08:59:43;;;;;;;0.32;0.32;;;24.10;80.80;;;;;;4207655;28;20048;-50
2021/07/25 09:02:08;;;;;;;0.65;0.65;;;24.10;80.80;;;;;;4207727;28;20098;-46
2021/07/25 09:04:31;;;;;;;0.55;0.55;;;24.10;80.60;;;;;;4209707;28;20052;-48
2021/07/25 09:06:52;;;;;;;0.00;0.00;;;24.10;80.60;;;;;;4210863;28;20459;-48
2021/07/25 09:09:17;;;;;;;0.05;0.05;;;24.20;80.60;;;;;;4209343;28;20127;-48
2021/07/25 09:11:40;;;;;;;0.47;0.47;;;24.10;80.50;;;;;;4209723;28;20062;-46
2021/07/25 09:14:02;;;;;;;2.20;0.65;;;24.10;80.50;;;;;;4210322;28;20178;-46
2021/07/25 09:16:28;;;;;;;0.75;0.75;;;24.10;80.50;;;;;;4210286;28;20059;-49
2021/07/25 09:18:51;;;;;;;0.10;0.10;;;24.10;80.50;;;;;;4210053;28;20055;-47
2021/07/25 09:21:13;;;;;;;0.47;0.47;;;24.10;80.60;;;;;;4210942;28;20060;-47
2021/07/25 09:23:36;;;;;;;0.28;0.28;;;24.10;80.60;;;;;;4210375;28;20520;-48
2021/07/25 09:25:59;;;;;;;0.35;0.35;;;24.10;80.60;;;;;;4209715;28;20048;-47
2021/07/25 09:28:26;;;;;;;0.60;0.60;;;24.10;80.70;;;;;;4210241;28;20052;-49
2021/07/25 09:30:48;;;;;;;0.22;0.22;;;24.10;81.00;;;;;;4193833;28;20486;-49
2021/07/25 09:33:29;;;;;;;0.00;0.00;;;24.00;80.80;;;;;;4208745;28;20113;-46
2021/07/25 09:35:51;;;;;;;0.85;0.85;;;24.00;80.80;;;;;;4209511;28;20051;-47
2021/07/25 09:38:14;;;;;;;0.17;0.17;;;24.00;80.90;;;;;;4210555;28;20059;-49
2021/07/25 09:40:39;;;;;;;0.82;0.80;;;24.00;80.90;;;;;;4210093;28;20048;-49
2021/07/25 09:43:13;;;;;;;0.25;0.25;;;24.00;80.90;;;;;;4210584;28;20538;-50
2021/07/25 09:45:58;;;;;;;0.40;0.40;;;24.00;81.00;;;;;;4209597;28;20054;-48
2021/07/25 09:48:21;;;;;;;0.13;0.13;;;24.10;80.90;;;;;;4209274;28;20075;-46
2021/07/25 09:50:43;;;;;;;0.28;0.28;;;24.10;80.90;;;;;;4210169;28;20460;-47
2021/07/25 09:53:24;;;;;;;0.70;0.65;;;24.10;80.90;;;;;;4209767;28;20506;-46
2021/07/25 09:55:48;;;;;;;1.13;1.00;;;24.10;80.80;;;;;;4208427;28;20046;-49
2021/07/25 09:58:12;;;;;;;0.03;0.03;;;24.10;80.60;;;;;;4209543;28;20040;-47
2021/07/25 10:00:39;;;;;;;0.10;0.10;;;24.20;80.60;;;;;;4209488;27;20444;-47
2021/07/25 10:03:01;;;;;;;0.00;0.00;;;24.20;80.40;;;;;;4209556;28;20047;-49
2021/07/25 10:05:25;;;;;;;0.17;0.17;;;24.20;80.40;;;;;;4210056;28;20047;-51
2021/07/25 10:07:49;;;;;;;0.68;0.68;;;24.20;80.30;;;;;;4209581;28;20079;-51
2021/07/25 10:10:13;;;;;;;0.88;0.88;;;24.20;80.20;;;;;;4209752;28;20127;-52
2021/07/25 10:12:37;;;;;;;0.47;0.47;;;24.20;80.20;;;;;;4193243;28;20102;-50
2021/07/25 10:15:02;;;;;;;0.55;0.55;;;24.30;80.10;;;;;;4192263;28;20045;-50
2021/07/25 10:17:24;;;;;;;0.85;0.85;;;24.30;80.00;;;;;;4192722;28;20072;-50
2021/07/25 10:19:47;;;;;;;0.22;0.20;;;24.30;80.00;;;;;;4192908;28;20133;-49
2021/07/25 10:22:11;;;;;;;0.20;0.20;;;24.30;79.80;;;;;;4192840;28;20048;-47
2021/07/25 10:24:35;;;;;;;0.00;0.00;;;24.30;79.70;;;;;;4198290;27;20058;-47
2021/07/25 10:26:59;;;;;;;0.88;0.88;;;24.30;79.70;;;;;;4209388;28;20058;-47
2021/07/25 10:29:23;;;;;;;0.15;0.15;;;24.30;79.70;;;;;;4194032;28;20067;-47
2021/07/25 10:31:46;;;;;;;0.30;0.30;;;24.30;79.70;;;;;;4192608;28;20040;-45
2021/07/25 10:34:08;;;;;;;1.08;0.47;;;24.30;79.80;;;;;;4209081;28;20059;-47
2021/07/25 10:36:33;;;;;;;0.00;0.00;;;24.30;79.80;;;;;;4202826;28;20054;-48
2021/07/25 10:38:56;;;;;;;0.00;0.00;;;24.30;79.80;;;;;;4209145;28;20052;-48
2021/07/25 10:41:22;;;;;;;0.10;0.10;;;24.30;79.80;;;;;;4192399;28;20056;-47
2021/07/25 10:43:45;;;;;;;0.43;0.43;;;24.30;79.80;;;;;;4208308;28;20075;-48
2021/07/25 10:46:18;;;;;;;1.17;1.15;;;24.30;79.80;;;;;;4209024;28;20392;-47
2021/07/25 10:49:14;;;;;;;0.85;0.85;;;24.30;79.80;;;;;;4208931;28;20070;-46
2021/07/25 10:51:37;;;;;;;0.20;0.20;;;24.30;79.80;;;;;;4208615;28;20055;-47
2021/07/25 10:54:29;;;;;;;1.23;0.32;;;24.30;79.80;;;;;;4208798;28;20510;-50
2021/07/25 10:56:59;;;;;;;0.22;0.22;;;24.40;79.70;;;;;;4207953;28;20051;-46
2021/07/25 10:59:39;;;;;;;0.47;0.47;;;24.40;79.60;;;;;;4208554;28;20084;-47
2021/07/25 11:02:01;;;;;;;0.00;0.00;;;24.40;79.50;;;;;;4208945;28;20048;-50
2021/07/25 11:05:03;;;;;;;0.32;0.32;;;24.40;79.50;;;;;;4208892;28;20293;-48
2021/07/25 11:07:39;;;;;;;0.00;0.00;;;24.40;79.40;;;;;;4208565;28;20135;-46
2021/07/25 11:10:02;;;;;;;0.50;0.50;;;24.40;79.30;;;;;;4208587;28;20422;-51
2021/07/25 11:12:25;;;;;;;0.10;0.10;;;24.50;79.30;;;;;;4208154;28;20451;-48
2021/07/25 11:15:09;;;;;;;0.15;0.15;;;24.40;80.20;;;;;;4208720;28;20048;-46
2021/07/25 11:17:51;;;;;;;0.40;0.40;;;24.50;79.20;;;;;;4208593;28;20067;-49
2021/07/25 11:20:38;;;;;;;0.10;0.10;;;24.50;79.20;;;;;;4208569;28;20462;-51
2021/07/25 11:23:00;;;;;;;0.38;0.38;;;24.50;79.20;;;;;;4208246;28;20054;-50
2021/07/25 11:25:28;;;;;;;2.42;0.95;;;24.50;79.20;;;;;;4208687;28;20589;-50
2021/07/25 11:27:51;;;;;;;0.55;0.55;;;24.50;79.10;;;;;;4206879;28;20517;-47
2021/07/25 11:30:13;;;;;;;0.40;0.40;;;24.50;79.10;;;;;;4208244;28;20044;-46
2021/07/25 11:32:36;;;;;;;0.08;0.08;;;24.50;79.00;;;;;;4208539;28;20075;-46
2021/07/25 11:35:03;;;;;;;0.63;0.63;;;24.50;79.00;;;;;;4208484;28;20720;-50
2021/07/25 11:37:35;;;;;;;0.25;0.25;;;24.50;79.00;;;;;;4208624;28;20158;-49
2021/07/25 11:40:00;;;;;;;0.55;0.55;;;24.50;79.00;;;;;;4208578;28;20550;-49
2021/07/25 11:42:24;;;;;;;0.57;0.57;;;24.50;78.90;;;;;;4207837;28;20506;-47
2021/07/25 11:44:46;;;;;;;0.30;0.30;;;24.50;78.90;;;;;;4208355;28;20048;-46
2021/07/25 11:47:08;;;;;;;0.38;0.38;;;24.60;78.90;;;;;;4207431;27;20079;-50
2021/07/25 11:49:33;;;;;;;0.00;0.00;;;24.60;78.80;;;;;;4208276;28;20139;-47
2021/07/25 11:51:58;;;;;;;7.55;1.30;;;24.60;78.80;;;;;;4208412;28;20097;-46
2021/07/25 11:54:23;;;;;;;0.05;0.05;;;24.60;78.80;;;;;;4208267;28;21045;-46
2021/07/25 11:56:53;;;;;;;0.10;0.10;;;24.60;78.80;;;;;;4208074;28;20055;-47
2021/07/25 11:59:15;;;;;;;0.20;0.20;;;24.60;78.80;;;;;;4207020;28;20159;-52
2021/07/25 12:01:38;;;;;;;0.20;0.20;;;24.60;78.70;;;;;;4208070;28;20461;-50
2021/07/25 12:04:16;;;;;;;0.32;0.32;;;24.60;78.60;;;;;;4208075;28;20132;-47
2021/07/25 12:06:39;;;;;;;0.28;0.28;;;24.60;78.50;;;;;;4191404;28;20052;-49
2021/07/25 12:09:05;;;;;;;0.28;0.28;;;24.60;78.50;;;;;;4191434;28;20048;-49
2021/07/25 12:11:28;;;;;;;0.63;0.63;;;24.70;78.50;;;;;;4174379;28;20052;-49
2021/07/25 12:13:51;;;;;;;0.50;0.50;;;24.70;78.50;;;;;;4174744;28;20131;-50
2021/07/25 12:16:13;;;;;;;0.80;0.80;;;24.70;78.40;;;;;;4174701;28;20800;-48
2021/07/25 12:18:37;;;;;;;0.65;0.30;;;24.70;78.40;;;;;;4174814;28;20463;-47
2021/07/25 12:21:00;;;;;;;1.45;1.35;;;24.70;78.30;;;;;;4174737;28;20099;-48
2021/07/25 12:23:36;;;;;;;1.05;0.95;;;24.70;78.20;;;;;;4174584;28;20396;-49
2021/07/25 12:25:58;;;;;;;0.30;0.30;;;24.60;78.10;;;;;;4174326;28;20195;-48
2021/07/25 12:28:25;;;;;;;3.33;1.55;;;24.70;78.20;;;;;;4174991;28;20049;-46
2021/07/25 12:30:48;;;;;;;0.30;0.30;;;24.70;78.10;;;;;;4174254;28;20552;-50
2021/07/25 12:33:10;;;;;;;0.77;0.73;;;24.70;78.10;;;;;;4174548;28;20057;-47